sensor_id;sensor_type;location;lat;lon;timestamp;pressure;altitude;pressure_sealevel;temperature;humidity
5905;BME280;2978;42.012;24.880;2022-12-07T00:02:24;98945.22;;;7.84;87.57
5905;BME280;2978;42.012;24.880;2022-12-07T00:04:50;98947.44;;;7.87;87.65
5905;BME280;2978;42.012;24.880;2022-12-07T00:07:15;98941.00;;;7.76;88.05
5905;BME280;2978;42.012;24.880;2022-12-07T00:09:40;98949.28;;;7.81;87.99
5905;BME280;2978;42.012;24.880;2022-12-07T00:12:07;98941.28;;;7.75;87.57
5905;BME280;2978;42.012;24.880;2022-12-07T00:14:33;98930.19;;;7.65;87.83
5905;BME280;2978;42.012;24.880;2022-12-07T00:16:58;98937.31;;;7.66;88.08
5905;BME280;2978;42.012;24.880;2022-12-07T00:19:24;98943.03;;;7.64;88.18
5905;BME280;2978;42.012;24.880;2022-12-07T00:21:49;98944.44;;;7.67;88.72
5905;BME280;2978;42.012;24.880;2022-12-07T00:24:15;98943.09;;;7.69;88.30
5905;BME280;2978;42.012;24.880;2022-12-07T00:26:42;98937.88;;;7.68;87.67
5905;BME280;2978;42.012;24.880;2022-12-07T00:29:13;98942.84;;;7.71;87.92
5905;BME280;2978;42.012;24.880;2022-12-07T00:31:40;98928.59;;;7.69;87.63
5905;BME280;2978;42.012;24.880;2022-12-07T00:34:07;98942.44;;;7.79;87.65
5905;BME280;2978;42.012;24.880;2022-12-07T00:36:33;98952.94;;;7.87;87.44
5905;BME280;2978;42.012;24.880;2022-12-07T00:38:59;98952.59;;;7.83;87.25
5905;BME280;2978;42.012;24.880;2022-12-07T00:41:26;98944.06;;;7.80;86.80
5905;BME280;2978;42.012;24.880;2022-12-07T00:43:52;98946.81;;;7.80;87.15
5905;BME280;2978;42.012;24.880;2022-12-07T00:46:19;98946.81;;;7.80;86.75
5905;BME280;2978;42.012;24.880;2022-12-07T00:48:46;98937.63;;;7.69;87.77
5905;BME280;2978;42.012;24.880;2022-12-07T00:51:14;98953.38;;;7.79;87.33
5905;BME280;2978;42.012;24.880;2022-12-07T00:53:40;98941.84;;;7.77;87.23
5905;BME280;2978;42.012;24.880;2022-12-07T00:56:19;98940.28;;;7.81;86.92
5905;BME280;2978;42.012;24.880;2022-12-07T00:59:02;98937.22;;;7.77;86.45
5905;BME280;2978;42.012;24.880;2022-12-07T01:01:30;98931.41;;;7.74;87.09
5905;BME280;2978;42.012;24.880;2022-12-07T01:03:55;98931.41;;;7.74;86.74
5905;BME280;2978;42.012;24.880;2022-12-07T01:06:22;98935.72;;;7.70;87.07
5905;BME280;2978;42.012;24.880;2022-12-07T01:08:49;98935.97;;;7.68;87.05
5905;BME280;2978;42.012;24.880;2022-12-07T01:11:17;98935.97;;;7.68;86.84
5905;BME280;2978;42.012;24.880;2022-12-07T01:13:43;98926.63;;;7.64;86.94
5905;BME280;2978;42.012;24.880;2022-12-07T01:16:12;98933.50;;;7.67;86.92
5905;BME280;2978;42.012;24.880;2022-12-07T01:18:39;98929.09;;;7.66;86.48
5905;BME280;2978;42.012;24.880;2022-12-07T01:21:07;98930.19;;;7.65;87.26
5905;BME280;2978;42.012;24.880;2022-12-07T01:23:34;98920.81;;;7.61;87.25
5905;BME280;2978;42.012;24.880;2022-12-07T01:26:04;98924.88;;;7.58;87.71
5905;BME280;2978;42.012;24.880;2022-12-07T01:28:30;98926.28;;;7.61;87.35
5905;BME280;2978;42.012;24.880;2022-12-07T01:31:06;98915.88;;;7.58;87.54
5905;BME280;2978;42.012;24.880;2022-12-07T01:33:34;98915.03;;;7.57;87.64
5905;BME280;2978;42.012;24.880;2022-12-07T01:36:05;98916.38;;;7.55;87.13
5905;BME280;2978;42.012;24.880;2022-12-07T01:38:31;98913.22;;;7.46;87.55
5905;BME280;2978;42.012;24.880;2022-12-07T01:40:59;98902.28;;;7.46;88.10
5905;BME280;2978;42.012;24.880;2022-12-07T01:43:28;98902.59;;;7.50;87.52
5905;BME280;2978;42.012;24.880;2022-12-07T01:45:55;98900.94;;;7.49;87.60
5905;BME280;2978;42.012;24.880;2022-12-07T01:48:32;98899.84;;;7.50;87.08
5905;BME280;2978;42.012;24.880;2022-12-07T01:51:05;98897.97;;;7.50;86.79
5905;BME280;2978;42.012;24.880;2022-12-07T01:53:36;98890.53;;;7.46;87.24
5905;BME280;2978;42.012;24.880;2022-12-07T01:56:03;98887.28;;;7.49;87.26
5905;BME280;2978;42.012;24.880;2022-12-07T01:58:31;98883.56;;;7.38;87.60
5905;BME280;2978;42.012;24.880;2022-12-07T02:00:56;98891.44;;;7.35;87.90
5905;BME280;2978;42.012;24.880;2022-12-07T02:03:46;98881.50;;;7.29;87.94
5905;BME280;2978;42.012;24.880;2022-12-07T02:06:15;98872.16;;;7.25;88.60
5905;BME280;2978;42.012;24.880;2022-12-07T02:08:43;98872.66;;;7.22;88.20
5905;BME280;2978;42.012;24.880;2022-12-07T02:11:09;98864.38;;;7.17;88.21
5905;BME280;2978;42.012;24.880;2022-12-07T02:13:37;98879.13;;;7.16;89.04
5905;BME280;2978;42.012;24.880;2022-12-07T02:18:51;98875.22;;;7.12;88.95
5905;BME280;2978;42.012;24.880;2022-12-07T02:30:21;98862.59;;;7.06;88.89
5905;BME280;2978;42.012;24.880;2022-12-07T02:35:44;98863.72;;;7.10;88.24
5905;BME280;2978;42.012;24.880;2022-12-07T02:45:58;98871.50;;;7.01;88.54
5905;BME280;2978;42.012;24.880;2022-12-07T02:48:26;98860.91;;;7.05;89.03
5905;BME280;2978;42.012;24.880;2022-12-07T02:50:53;98876.50;;;7.04;89.19
5905;BME280;2978;42.012;24.880;2022-12-07T02:56:03;98860.31;;;7.03;88.98
5905;BME280;2978;42.012;24.880;2022-12-07T03:04:02;98844.50;;;7.05;88.77
5905;BME280;2978;42.012;24.880;2022-12-07T03:06:42;98849.66;;;7.01;88.67
5905;BME280;2978;42.012;24.880;2022-12-07T03:09:26;98837.41;;;6.87;89.57
5905;BME280;2978;42.012;24.880;2022-12-07T03:15:12;98824.66;;;6.93;88.87
5905;BME280;2978;42.012;24.880;2022-12-07T03:17:41;98830.94;;;6.93;89.55
5905;BME280;2978;42.012;24.880;2022-12-07T03:20:11;98829.13;;;6.99;89.27
5905;BME280;2978;42.012;24.880;2022-12-07T03:22:40;98836.22;;;7.00;89.18
5905;BME280;2978;42.012;24.880;2022-12-07T03:25:10;98828.47;;;6.92;89.76
5905;BME280;2978;42.012;24.880;2022-12-07T03:30:14;98840.78;;;6.94;88.92
5905;BME280;2978;42.012;24.880;2022-12-07T03:32:57;98835.56;;;6.93;89.18
5905;BME280;2978;42.012;24.880;2022-12-07T03:35:34;98841.03;;;6.93;89.20
5905;BME280;2978;42.012;24.880;2022-12-07T03:38:24;98847.44;;;6.81;89.28
5905;BME280;2978;42.012;24.880;2022-12-07T03:41:09;98859.13;;;6.94;89.15
5905;BME280;2978;42.012;24.880;2022-12-07T03:43:37;98857.13;;;7.06;88.41
5905;BME280;2978;42.012;24.880;2022-12-07T03:54:09;98854.53;;;7.16;88.06
5905;BME280;2978;42.012;24.880;2022-12-07T03:56:36;98857.00;;;7.17;87.23
5905;BME280;2978;42.012;24.880;2022-12-07T03:59:02;98855.63;;;7.15;87.66
5905;BME280;2978;42.012;24.880;2022-12-07T04:01:27;98859.75;;;7.17;87.51
5905;BME280;2978;42.012;24.880;2022-12-07T04:03:53;98851.84;;;7.21;87.43
5905;BME280;2978;42.012;24.880;2022-12-07T04:06:18;98847.47;;;7.20;86.85
5905;BME280;2978;42.012;24.880;2022-12-07T04:08:44;98841.38;;;7.13;87.24
5905;BME280;2978;42.012;24.880;2022-12-07T04:11:09;98849.31;;;7.14;86.65
5905;BME280;2978;42.012;24.880;2022-12-07T04:13:35;98852.22;;;7.08;86.75
5905;BME280;2978;42.012;24.880;2022-12-07T04:16:20;98852.78;;;7.10;87.37
5905;BME280;2978;42.012;24.880;2022-12-07T04:18:46;98842.88;;;7.04;86.56
5905;BME280;2978;42.012;24.880;2022-12-07T04:21:11;98835.16;;;7.01;86.74
5905;BME280;2978;42.012;24.880;2022-12-07T04:23:36;98844.25;;;7.06;86.79
5905;BME280;2978;42.012;24.880;2022-12-07T04:26:02;98845.41;;;7.10;86.22
5905;BME280;2978;42.012;24.880;2022-12-07T04:28:27;98844.09;;;7.13;86.63
5905;BME280;2978;42.012;24.880;2022-12-07T04:30:53;98852.03;;;7.14;86.08
5905;BME280;2978;42.012;24.880;2022-12-07T04:33:18;98845.09;;;7.07;86.54
5905;BME280;2978;42.012;24.880;2022-12-07T04:35:44;98839.69;;;7.12;86.30
5905;BME280;2978;42.012;24.880;2022-12-07T04:38:09;98844.44;;;7.00;86.58
5905;BME280;2978;42.012;24.880;2022-12-07T04:40:34;98840.38;;;6.85;87.02
5905;BME280;2978;42.012;24.880;2022-12-07T04:43:00;98837.50;;;6.75;87.66
5905;BME280;2978;42.012;24.880;2022-12-07T04:45:25;98826.81;;;6.74;88.20
5905;BME280;2978;42.012;24.880;2022-12-07T04:47:51;98820.53;;;6.73;86.95
5905;BME280;2978;42.012;24.880;2022-12-07T04:50:16;98820.88;;;6.60;87.23
5905;BME280;2978;42.012;24.880;2022-12-07T04:52:42;98817.19;;;6.71;87.75
5905;BME280;2978;42.012;24.880;2022-12-07T04:55:07;98815.75;;;6.64;87.29
5905;BME280;2978;42.012;24.880;2022-12-07T04:57:33;98827.00;;;6.67;88.54
5905;BME280;2978;42.012;24.880;2022-12-07T04:59:58;98819.47;;;6.74;87.82
5905;BME280;2978;42.012;24.880;2022-12-07T05:02:23;98811.75;;;6.71;87.32
5905;BME280;2978;42.012;24.880;2022-12-07T05:04:49;98811.66;;;6.66;87.25
5905;BME280;2978;42.012;24.880;2022-12-07T05:07:14;98819.34;;;6.69;87.82
5905;BME280;2978;42.012;24.880;2022-12-07T05:09:40;98813.41;;;6.72;86.98
5905;BME280;2978;42.012;24.880;2022-12-07T05:12:05;98818.56;;;6.69;86.50
5905;BME280;2978;42.012;24.880;2022-12-07T05:14:30;98825.97;;;6.73;86.92
5905;BME280;2978;42.012;24.880;2022-12-07T05:16:56;98825.91;;;6.68;86.94
5905;BME280;2978;42.012;24.880;2022-12-07T05:19:21;98830.38;;;6.74;87.43
5905;BME280;2978;42.012;24.880;2022-12-07T05:21:47;98833.13;;;6.74;86.64
5905;BME280;2978;42.012;24.880;2022-12-07T05:24:14;98831.44;;;6.73;86.41
5905;BME280;2978;42.012;24.880;2022-12-07T05:26:40;98840.16;;;6.70;86.37
5905;BME280;2978;42.012;24.880;2022-12-07T05:29:06;98831.59;;;6.50;87.38
5905;BME280;2978;42.012;24.880;2022-12-07T05:31:32;98840.38;;;6.52;87.83
5905;BME280;2978;42.012;24.880;2022-12-07T05:33:57;98848.78;;;6.62;86.96
5905;BME280;2978;42.012;24.880;2022-12-07T05:36:23;98842.06;;;6.53;87.40
5905;BME280;2978;42.012;24.880;2022-12-07T05:38:48;98849.50;;;6.41;88.16
5905;BME280;2978;42.012;24.880;2022-12-07T05:41:17;98840.13;;;6.37;89.01
5905;BME280;2978;42.012;24.880;2022-12-07T05:44:01;98835.84;;;6.41;88.20
5905;BME280;2978;42.012;24.880;2022-12-07T05:46:27;98840.38;;;6.52;88.44
5905;BME280;2978;42.012;24.880;2022-12-07T05:48:52;98840.78;;;6.61;88.23
5905;BME280;2978;42.012;24.880;2022-12-07T05:51:18;98844.19;;;6.68;87.52
5905;BME280;2978;42.012;24.880;2022-12-07T05:53:44;98848.50;;;6.80;86.93
5905;BME280;2978;42.012;24.880;2022-12-07T05:56:09;98844.38;;;6.78;86.49
5905;BME280;2978;42.012;24.880;2022-12-07T05:58:35;98845.19;;;6.78;87.27
5905;BME280;2978;42.012;24.880;2022-12-07T06:01:19;98840.56;;;6.96;86.39
5905;BME280;2978;42.012;24.880;2022-12-07T06:03:44;98841.28;;;7.08;85.79
5905;BME280;2978;42.012;24.880;2022-12-07T06:06:10;98842.03;;;7.20;84.90
5905;BME280;2978;42.012;24.880;2022-12-07T06:08:36;98839.34;;;7.25;84.34
5905;BME280;2978;42.012;24.880;2022-12-07T06:11:01;98840.47;;;7.29;84.29
5905;BME280;2978;42.012;24.880;2022-12-07T06:13:45;98842.81;;;7.37;83.47
5905;BME280;2978;42.012;24.880;2022-12-07T06:16:10;98842.63;;;7.43;83.23
5905;BME280;2978;42.012;24.880;2022-12-07T06:18:36;98861.94;;;7.58;82.83
5905;BME280;2978;42.012;24.880;2022-12-07T06:21:01;98858.69;;;7.40;83.32
5905;BME280;2978;42.012;24.880;2022-12-07T06:23:27;98853.34;;;7.50;82.68
5905;BME280;2978;42.012;24.880;2022-12-07T06:25:52;98859.53;;;7.62;82.50
5905;BME280;2978;42.012;24.880;2022-12-07T06:28:18;98856.50;;;7.80;82.62
5905;BME280;2978;42.012;24.880;2022-12-07T06:30:43;98854.28;;;7.77;81.80
5905;BME280;2978;42.012;24.880;2022-12-07T06:33:08;98864.03;;;7.89;81.65
5905;BME280;2978;42.012;24.880;2022-12-07T06:35:34;98867.63;;;7.95;81.26
5905;BME280;2978;42.012;24.880;2022-12-07T06:37:59;98857.88;;;8.04;80.85
5905;BME280;2978;42.012;24.880;2022-12-07T06:40:25;98849.22;;;8.12;80.54
5905;BME280;2978;42.012;24.880;2022-12-07T06:42:50;98860.91;;;8.24;80.25
5905;BME280;2978;42.012;24.880;2022-12-07T06:45:15;98872.22;;;8.33;79.73
5905;BME280;2978;42.012;24.880;2022-12-07T06:47:41;98865.94;;;8.37;78.88
5905;BME280;2978;42.012;24.880;2022-12-07T06:50:06;98864.94;;;8.43;78.88
5905;BME280;2978;42.012;24.880;2022-12-07T06:52:33;98864.31;;;8.36;78.71
5905;BME280;2978;42.012;24.880;2022-12-07T06:54:58;98859.66;;;8.37;79.13
5905;BME280;2978;42.012;24.880;2022-12-07T06:57:24;98851.88;;;8.29;79.49
5905;BME280;2978;42.012;24.880;2022-12-07T06:59:50;98859.34;;;8.33;79.39
5905;BME280;2978;42.012;24.880;2022-12-07T07:02:15;98873.72;;;8.45;78.65
5905;BME280;2978;42.012;24.880;2022-12-07T07:04:41;98866.66;;;8.54;78.80
5905;BME280;2978;42.012;24.880;2022-12-07T07:07:07;98868.94;;;8.62;78.48
5905;BME280;2978;42.012;24.880;2022-12-07T07:09:32;98870.75;;;8.78;77.62
5905;BME280;2978;42.012;24.880;2022-12-07T07:11:58;98872.00;;;8.97;77.54
5905;BME280;2978;42.012;24.880;2022-12-07T07:14:23;98872.69;;;9.15;77.31
5905;BME280;2978;42.012;24.880;2022-12-07T07:16:48;98871.16;;;9.34;76.22
5905;BME280;2978;42.012;24.880;2022-12-07T07:19:14;98873.50;;;9.52;75.61
5905;BME280;2978;42.012;24.880;2022-12-07T07:21:39;98870.25;;;9.65;74.83
5905;BME280;2978;42.012;24.880;2022-12-07T07:24:05;98862.91;;;9.75;74.21
5905;BME280;2978;42.012;24.880;2022-12-07T07:26:31;98867.91;;;9.88;73.54
5905;BME280;2978;42.012;24.880;2022-12-07T07:28:56;98872.91;;;10.06;72.71
5905;BME280;2978;42.012;24.880;2022-12-07T07:31:21;98882.59;;;10.14;72.53
5905;BME280;2978;42.012;24.880;2022-12-07T07:33:47;98861.41;;;10.09;71.96
5905;BME280;2978;42.012;24.880;2022-12-07T07:36:12;98887.06;;;10.30;71.40
5905;BME280;2978;42.012;24.880;2022-12-07T07:38:38;98885.69;;;10.38;71.07
5905;BME280;2978;42.012;24.880;2022-12-07T07:41:04;98881.31;;;10.42;71.10
5905;BME280;2978;42.012;24.880;2022-12-07T07:43:30;98877.50;;;10.48;70.94
5905;BME280;2978;42.012;24.880;2022-12-07T07:45:55;98875.59;;;10.68;70.36
5905;BME280;2978;42.012;24.880;2022-12-07T07:48:21;98871.78;;;10.84;70.30
5905;BME280;2978;42.012;24.880;2022-12-07T07:50:48;98877.25;;;10.99;69.86
5905;BME280;2978;42.012;24.880;2022-12-07T07:53:13;98873.66;;;10.64;70.74
5905;BME280;2978;42.012;24.880;2022-12-07T07:55:38;98880.53;;;10.86;70.38
5905;BME280;2978;42.012;24.880;2022-12-07T07:58:04;98885.25;;;11.06;70.07
5905;BME280;2978;42.012;24.880;2022-12-07T08:00:29;98878.63;;;11.22;70.00
5905;BME280;2978;42.012;24.880;2022-12-07T08:02:55;98882.75;;;11.40;69.61
5905;BME280;2978;42.012;24.880;2022-12-07T08:05:20;98879.41;;;11.58;68.16
5905;BME280;2978;42.012;24.880;2022-12-07T08:07:46;98886.03;;;11.77;67.40
5905;BME280;2978;42.012;24.880;2022-12-07T08:10:13;98878.81;;;11.86;66.95
5905;BME280;2978;42.012;24.880;2022-12-07T08:12:40;98890.09;;;11.84;67.63
5905;BME280;2978;42.012;24.880;2022-12-07T08:15:27;98879.94;;;11.80;68.29
5905;BME280;2978;42.012;24.880;2022-12-07T08:17:56;98881.88;;;11.79;68.56
5905;BME280;2978;42.012;24.880;2022-12-07T08:32:11;98866.63;;;12.02;68.66
5905;BME280;2978;42.012;24.880;2022-12-07T08:34:37;98872.09;;;12.12;68.06
5905;BME280;2978;42.012;24.880;2022-12-07T08:37:02;98879.31;;;12.03;69.13
5905;BME280;2978;42.012;24.880;2022-12-07T08:39:27;98868.84;;;12.00;69.43
5905;BME280;2978;42.012;24.880;2022-12-07T08:41:53;98867.75;;;12.01;69.79
5905;BME280;2978;42.012;24.880;2022-12-07T08:44:18;98871.31;;;12.01;69.86
5905;BME280;2978;42.012;24.880;2022-12-07T08:46:57;98870.69;;;12.19;69.77
5905;BME280;2978;42.012;24.880;2022-12-07T08:49:36;98878.09;;;12.29;70.00
5905;BME280;2978;42.012;24.880;2022-12-07T08:52:04;98872.84;;;12.27;69.94
5905;BME280;2978;42.012;24.880;2022-12-07T08:54:30;98881.38;;;12.31;70.30
5905;BME280;2978;42.012;24.880;2022-12-07T08:56:56;98872.06;;;12.22;70.65
5905;BME280;2978;42.012;24.880;2022-12-07T08:59:22;98863.28;;;12.15;70.68
5905;BME280;2978;42.012;24.880;2022-12-07T09:01:48;98864.06;;;12.20;71.29
5905;BME280;2978;42.012;24.880;2022-12-07T09:04:13;98850.03;;;12.22;71.12
5905;BME280;2978;42.012;24.880;2022-12-07T09:06:41;98842.88;;;12.16;71.30
5905;BME280;2978;42.012;24.880;2022-12-07T09:09:07;98842.25;;;12.24;71.05
5905;BME280;2978;42.012;24.880;2022-12-07T09:11:33;98837.25;;;12.31;71.00
5905;BME280;2978;42.012;24.880;2022-12-07T09:13:58;98832.00;;;12.34;71.70
5905;BME280;2978;42.012;24.880;2022-12-07T09:16:24;98832.50;;;12.41;70.95
5905;BME280;2978;42.012;24.880;2022-12-07T09:18:49;98830.63;;;12.37;70.93
5905;BME280;2978;42.012;24.880;2022-12-07T09:21:15;98830.31;;;12.43;70.89
5905;BME280;2978;42.012;24.880;2022-12-07T09:23:41;98819.19;;;12.59;70.16
5905;BME280;2978;42.012;24.880;2022-12-07T09:26:07;98825.47;;;12.64;69.71
5905;BME280;2978;42.012;24.880;2022-12-07T09:28:33;98811.72;;;12.59;70.47
5905;BME280;2978;42.012;24.880;2022-12-07T09:30:59;98802.31;;;12.65;70.46
5905;BME280;2978;42.012;24.880;2022-12-07T09:33:25;98804.50;;;12.68;70.22
5905;BME280;2978;42.012;24.880;2022-12-07T09:35:52;98803.28;;;12.45;71.20
5905;BME280;2978;42.012;24.880;2022-12-07T09:38:19;98805.28;;;12.35;71.41
5905;BME280;2978;42.012;24.880;2022-12-07T09:40:45;98804.44;;;12.39;71.73
5905;BME280;2978;42.012;24.880;2022-12-07T09:43:20;98793.13;;;12.41;71.06
5905;BME280;2978;42.012;24.880;2022-12-07T09:45:48;98792.03;;;12.37;71.40
5905;BME280;2978;42.012;24.880;2022-12-07T09:48:20;98778.22;;;12.42;72.01
5905;BME280;2978;42.012;24.880;2022-12-07T09:50:48;98786.44;;;12.47;71.51
5905;BME280;2978;42.012;24.880;2022-12-07T09:53:32;98780.34;;;12.50;71.25
5905;BME280;2978;42.012;24.880;2022-12-07T09:55:59;98780.84;;;12.57;70.94
5905;BME280;2978;42.012;24.880;2022-12-07T09:58:27;98768.69;;;12.63;70.33
5905;BME280;2978;42.012;24.880;2022-12-07T10:01:17;98767.03;;;12.62;70.10
5905;BME280;2978;42.012;24.880;2022-12-07T10:03:54;98762.91;;;12.60;71.38
5905;BME280;2978;42.012;24.880;2022-12-07T10:06:20;98756.28;;;12.61;71.35
5905;BME280;2978;42.012;24.880;2022-12-07T10:08:46;98749.41;;;12.58;71.39
5905;BME280;2978;42.012;24.880;2022-12-07T10:11:12;98755.50;;;12.55;71.69
5905;BME280;2978;42.012;24.880;2022-12-07T10:13:48;98758.28;;;12.50;72.09
5905;BME280;2978;42.012;24.880;2022-12-07T10:16:37;98744.53;;;12.45;72.20
5905;BME280;2978;42.012;24.880;2022-12-07T10:19:26;98749.03;;;12.36;72.47
5905;BME280;2978;42.012;24.880;2022-12-07T10:22:04;98755.03;;;12.43;72.90
5905;BME280;2978;42.012;24.880;2022-12-07T10:24:30;98753.91;;;12.49;72.34
5905;BME280;2978;42.012;24.880;2022-12-07T10:26:56;98747.28;;;12.45;72.08
5905;BME280;2978;42.012;24.880;2022-12-07T10:29:32;98752.22;;;12.53;72.93
5905;BME280;2978;42.012;24.880;2022-12-07T10:32:33;98740.50;;;12.66;71.50
5905;BME280;2978;42.012;24.880;2022-12-07T10:35:19;98750.88;;;12.79;71.48
5905;BME280;2978;42.012;24.880;2022-12-07T10:37:47;98747.88;;;12.76;71.87
5905;BME280;2978;42.012;24.880;2022-12-07T10:40:29;98755.56;;;12.79;70.93
5905;BME280;2978;42.012;24.880;2022-12-07T10:45:27;98740.25;;;12.96;70.68
5905;BME280;2978;42.012;24.880;2022-12-07T10:48:42;98730.97;;;13.16;70.20
5905;BME280;2978;42.012;24.880;2022-12-07T10:51:15;98736.44;;;13.21;69.98
5905;BME280;2978;42.012;24.880;2022-12-07T10:53:57;98734.69;;;13.30;69.66
5905;BME280;2978;42.012;24.880;2022-12-07T11:13:53;98732.72;;;12.73;71.67
5905;BME280;2978;42.012;24.880;2022-12-07T11:19:03;98730.44;;;12.80;71.02
5905;BME280;2978;42.012;24.880;2022-12-07T11:24:24;98713.56;;;12.87;71.73
5905;BME280;2978;42.012;24.880;2022-12-07T11:30:08;98697.44;;;12.70;72.85
5905;BME280;2978;42.012;24.880;2022-12-07T11:32:55;98698.03;;;12.67;72.15
5905;BME280;2978;42.012;24.880;2022-12-07T11:38:09;98705.81;;;12.60;72.63
5905;BME280;2978;42.012;24.880;2022-12-07T11:40:36;98708.47;;;12.70;72.79
5905;BME280;2978;42.012;24.880;2022-12-07T11:43:26;98696.63;;;12.70;72.44
5905;BME280;2978;42.012;24.880;2022-12-07T11:46:17;98693.75;;;12.51;73.46
5905;BME280;2978;42.012;24.880;2022-12-07T11:48:49;98687.66;;;12.54;73.42
5905;BME280;2978;42.012;24.880;2022-12-07T11:51:18;98682.59;;;12.66;72.59
5905;BME280;2978;42.012;24.880;2022-12-07T11:53:55;98683.31;;;12.77;72.22
5905;BME280;2978;42.012;24.880;2022-12-07T11:56:26;98667.00;;;12.80;71.42
5905;BME280;2978;42.012;24.880;2022-12-07T11:59:08;98665.59;;;12.83;72.14
5905;BME280;2978;42.012;24.880;2022-12-07T12:04:46;98660.44;;;13.00;71.73
5905;BME280;2978;42.012;24.880;2022-12-07T12:07:18;98657.53;;;13.15;71.19
5905;BME280;2978;42.012;24.880;2022-12-07T12:09:57;98663.75;;;13.25;70.81
5905;BME280;2978;42.012;24.880;2022-12-07T12:15:18;98657.84;;;13.37;70.56
5905;BME280;2978;42.012;24.880;2022-12-07T12:18:22;98659.22;;;13.34;70.65
5905;BME280;2978;42.012;24.880;2022-12-07T12:21:10;98655.34;;;13.35;70.88
5905;BME280;2978;42.012;24.880;2022-12-07T12:23:44;98639.38;;;13.32;70.68
5905;BME280;2978;42.012;24.880;2022-12-07T12:26:19;98643.59;;;13.48;70.33
5905;BME280;2978;42.012;24.880;2022-12-07T12:29:02;98644.19;;;13.45;70.24
5905;BME280;2978;42.012;24.880;2022-12-07T12:31:38;98648.56;;;13.46;70.50
5905;BME280;2978;42.012;24.880;2022-12-07T12:42:45;98647.38;;;13.10;72.05
5905;BME280;2978;42.012;24.880;2022-12-07T12:45:19;98645.63;;;13.19;72.24
5905;BME280;2978;42.012;24.880;2022-12-07T12:47:59;98637.13;;;13.34;71.89
5905;BME280;2978;42.012;24.880;2022-12-07T12:50:29;98630.00;;;13.52;70.93
5905;BME280;2978;42.012;24.880;2022-12-07T13:00:44;98629.44;;;13.74;70.18
5905;BME280;2978;42.012;24.880;2022-12-07T13:03:27;98627.75;;;13.73;70.04
5905;BME280;2978;42.012;24.880;2022-12-07T13:08:45;98628.63;;;13.49;71.13
5905;BME280;2978;42.012;24.880;2022-12-07T13:11:35;98622.16;;;13.59;70.93
5905;BME280;2978;42.012;24.880;2022-12-07T13:20:04;98624.47;;;13.33;71.34
5905;BME280;2978;42.012;24.880;2022-12-07T13:25:07;98622.16;;;12.93;72.86
5905;BME280;2978;42.012;24.880;2022-12-07T13:27:37;98625.25;;;12.87;73.81
5905;BME280;2978;42.012;24.880;2022-12-07T13:30:20;98629.25;;;12.99;73.34
5905;BME280;2978;42.012;24.880;2022-12-07T13:32:57;98622.16;;;12.93;73.61
5905;BME280;2978;42.012;24.880;2022-12-07T13:35:33;98628.47;;;12.99;73.17
5905;BME280;2978;42.012;24.880;2022-12-07T13:38:02;98619.97;;;12.90;73.50
5905;BME280;2978;42.012;24.880;2022-12-07T13:40:29;98614.09;;;12.73;74.22
5905;BME280;2978;42.012;24.880;2022-12-07T13:43:02;98626.69;;;12.84;73.93
5905;BME280;2978;42.012;24.880;2022-12-07T13:45:31;98620.88;;;12.62;74.56
5905;BME280;2978;42.012;24.880;2022-12-07T13:48:42;98620.63;;;12.59;74.99
5905;BME280;2978;42.012;24.880;2022-12-07T13:51:18;98620.09;;;12.57;74.79
5905;BME280;2978;42.012;24.880;2022-12-07T13:53:55;98616.44;;;12.61;75.07
5905;BME280;2978;42.012;24.880;2022-12-07T13:56:22;98616.69;;;12.65;74.79
5905;BME280;2978;42.012;24.880;2022-12-07T13:58:51;98616.00;;;12.25;76.51
5905;BME280;2978;42.012;24.880;2022-12-07T14:01:17;98619.09;;;12.14;76.55
5905;BME280;2978;42.012;24.880;2022-12-07T14:03:43;98625.59;;;11.94;77.64
5905;BME280;2978;42.012;24.880;2022-12-07T14:06:24;98619.78;;;12.01;77.66
5905;BME280;2978;42.012;24.880;2022-12-07T14:08:50;98629.19;;;11.95;78.30
5905;BME280;2978;42.012;24.880;2022-12-07T14:11:30;98632.72;;;12.00;78.07
5905;BME280;2978;42.012;24.880;2022-12-07T14:13:59;98623.56;;;12.05;78.00
5905;BME280;2978;42.012;24.880;2022-12-07T14:18:58;98623.47;;;12.20;77.56
5905;BME280;2978;42.012;24.880;2022-12-07T14:21:26;98634.50;;;12.20;77.12
5905;BME280;2978;42.012;24.880;2022-12-07T14:24:21;98639.47;;;12.18;77.08
5905;BME280;2978;42.012;24.880;2022-12-07T14:26:51;98631.28;;;12.08;77.19
5905;BME280;2978;42.012;24.880;2022-12-07T14:31:52;98626.31;;;12.10;77.63
5905;BME280;2978;42.012;24.880;2022-12-07T14:34:21;98631.38;;;11.93;77.69
5905;BME280;2978;42.012;24.880;2022-12-07T14:36:47;98615.53;;;11.80;78.33
5905;BME280;2978;42.012;24.880;2022-12-07T14:39:12;98627.34;;;11.80;78.52
5905;BME280;2978;42.012;24.880;2022-12-07T14:41:38;98627.84;;;11.87;78.93
5905;BME280;2978;42.012;24.880;2022-12-07T14:44:16;98635.06;;;11.83;78.34
5905;BME280;2978;42.012;24.880;2022-12-07T14:46:42;98626.63;;;11.70;79.46
5905;BME280;2978;42.012;24.880;2022-12-07T14:49:07;98615.69;;;11.50;81.33
5905;BME280;2978;42.012;24.880;2022-12-07T14:51:36;98610.81;;;11.37;81.89
5905;BME280;2978;42.012;24.880;2022-12-07T14:54:05;98604.69;;;11.50;83.63
5905;BME280;2978;42.012;24.880;2022-12-07T14:56:32;98604.38;;;11.51;83.55
5905;BME280;2978;42.012;24.880;2022-12-07T14:58:57;98604.34;;;11.66;82.43
5905;BME280;2978;42.012;24.880;2022-12-07T15:01:23;98613.34;;;11.72;82.10
5905;BME280;2978;42.012;24.880;2022-12-07T15:03:48;98617.75;;;11.78;81.37
5905;BME280;2978;42.012;24.880;2022-12-07T15:06:16;98619.38;;;11.79;81.18
5905;BME280;2978;42.012;24.880;2022-12-07T15:08:42;98619.94;;;11.76;81.28
5905;BME280;2978;42.012;24.880;2022-12-07T15:11:14;98620.00;;;11.71;81.82
5905;BME280;2978;42.012;24.880;2022-12-07T15:13:39;98624.97;;;11.64;82.37
5905;BME280;2978;42.012;24.880;2022-12-07T15:16:23;98621.16;;;11.55;83.25
5905;BME280;2978;42.012;24.880;2022-12-07T15:18:49;98620.09;;;11.46;82.83
5905;BME280;2978;42.012;24.880;2022-12-07T15:21:15;98622.41;;;11.28;84.34
5905;BME280;2978;42.012;24.880;2022-12-07T15:23:41;98614.69;;;11.30;84.56
5905;BME280;2978;42.012;24.880;2022-12-07T15:26:06;98616.44;;;11.11;84.80
5905;BME280;2978;42.012;24.880;2022-12-07T15:28:33;98625.78;;;11.15;85.41
5905;BME280;2978;42.012;24.880;2022-12-07T15:30:59;98634.06;;;11.10;85.16
5905;BME280;2978;42.012;24.880;2022-12-07T15:33:24;98630.22;;;11.06;85.79
5905;BME280;2978;42.012;24.880;2022-12-07T15:35:49;98637.47;;;10.82;86.05
5905;BME280;2978;42.012;24.880;2022-12-07T15:38:15;98645.16;;;10.85;86.42